Hauptseite
METAR-TAF:

METAR-TAF

Flughäfen :

Uden, Niederlande

Militärflugplatz Volkel

Breite: 51-39N, Länge: 005-42E, Höhe: 22 m

Beobachtung

Neuester Wetterbericht von vor 17 Minuten, um 13:25 UTC
Wind 20 kt aus Ost/Nordost
Temperatur 3°C
Luftfeuchtigkeit 44%
Luftdruck 1025 hPa
Sichtweite 10 km oder mehr
Geschlossene Wolkendecke in der Höhe von 20000 ft

METAR: EHVK 241325Z AUTO 07020KT 9999 OVC200 03/M08 Q1025 BLU

Zeit: 14:42 (13:42 UTC)

Prognose

Neuester Wetterbericht von vor 28 Stunden und 12 Minuten, um 09:30 UTC
Gültige Prognose vom 23 um 10 UTC bis 23 um 22 UTC
Wind 12 kt aus Ost/Nordost
Sichtweite 10 km oder mehr
Aufgelockert bewölkt in der Höhe von 2500 ft
Zeitweise
vom 23 um 10 UTC bis 23 um 17 UTC
Wind 13 kt aus Ost, Böen bis zu 25 kt

TAF: EHVK 230930Z 2310/2322 07012KT 9999 SCT025 TEMPO 2310/2317 08013G25KT

Wetterbeobachtungen und Prognosen von mehr als 4000 Flughäfen (METAR und TAF Bericht).

Die verfügbaren Stationen werden durch gelbe und rote Markierungen auf der Karte dargestellt.

Führen Sie die Maus auf sie, um den Namen der Station zu sehen.

Darauf klicken, um die Beobachtung von Wetterbeobachtungen und Prognosen zu sehen.

Um die Karte zu ändern : klicken Sie auf den grünen Tasten mit einem schwarzen Kreuz Zum Vergrößern, auf den grünen Button mit einem Gedankenstrich zu verkleinern, oder auf die grünen Pfeile für benachbarte Karten.


METAR-TAF: